Terminal Aerodrome Forecast
Issued by NWS

Home | Current Version | Previous Version | Text Only | Print | Product List | Glossary On
Versions: 1 2 3 4 5 6 7 8 9 10 11 12 13 14 15 16 17 18
000
FTUS41 KCAR 301725
TAFHUL
TAF
KHUL 301725Z 3018/3118 18010KT P6SM BKN250
     FM310100 17007KT 5SM -SHRA BKN050
     FM310400 18005KT 5SM BR OVC007
     FM310800 19004KT 2SM BR OVC003
     FM311300 22005KT P6SM SCT003 BKN250=

USA.gov is the U.S. government's official web portal to all federal, state and local government web resources and services.